Terminal Aerodrome Forecast
Issued by NWS Omaha/Valley, NE

Home | Current Version | Previous Version | Text Only | Print | Product List | Glossary On
Versions: 1 2 3 4 5 6 7 8 9 10 11 12 13 14 15 16 17 18 19 20 21 22
000
FTUS43 KOAX 250520
TAFOMA
TAF
KOMA 250520Z 2506/2606 36005KT P6SM SCT100 BKN150
     FM251000 VRB04KT P6SM SCT250
      TEMPO 2510/2513 5SM BR
     FM251600 12005KT P6SM SCT100 SCT250
     FM252100 13007KT P6SM SCT250=

USA.gov is the U.S. government's official web portal to all federal, state and local government web resources and services.